createdAt,value
2018-02-21T00:00:59.781Z,25.70
2018-02-21T00:03:28.199Z,25.57
2018-02-21T00:05:55.876Z,24.47
2018-02-21T00:08:23.524Z,26.07
2018-02-21T00:10:51.147Z,26.20
2018-02-21T00:13:18.823Z,25.73
2018-02-21T00:15:46.492Z,24.43
2018-02-21T00:18:14.177Z,25.10
2018-02-21T00:20:41.867Z,25.67
2018-02-21T00:23:09.496Z,24.67
2018-02-21T00:25:37.185Z,24.40
2018-02-21T00:28:04.824Z,25.30
2018-02-21T00:30:32.483Z,25.67
2018-02-21T00:33:00.888Z,24.20
2018-02-21T00:35:28.623Z,24.53
2018-02-21T00:37:56.275Z,24.20
2018-02-21T00:40:24.659Z,25.80
2018-02-21T00:42:52.324Z,26.17
2018-02-21T00:45:19.979Z,25.10
2018-02-21T00:47:47.590Z,25.57
2018-02-21T00:50:15.259Z,25.27
2018-02-21T00:52:42.877Z,26.10
2018-02-21T00:55:11.360Z,25.93
2018-02-21T00:57:39.043Z,25.53
2018-02-21T01:00:06.659Z,26.40
2018-02-21T01:02:34.326Z,26.63
2018-02-21T01:05:01.987Z,26.40
2018-02-21T01:07:29.654Z,25.70
2018-02-21T01:09:58.134Z,26.87
2018-02-21T01:12:26.552Z,25.60
2018-02-21T01:14:54.243Z,25.90
2018-02-21T01:17:21.864Z,26.67
2018-02-21T01:19:49.495Z,26.33
2018-02-21T01:22:17.158Z,26.47
2018-02-21T01:24:44.816Z,26.57
2018-02-21T01:32:59.792Z,25.53
2018-02-21T01:35:27.454Z,26.23
2018-02-21T01:37:55.137Z,26.73
2018-02-21T01:40:23.678Z,26.40
2018-02-21T01:42:51.285Z,27.47
2018-02-21T01:45:18.924Z,25.97
2018-02-21T01:47:46.574Z,27.37
2018-02-21T01:50:14.942Z,27.77
2018-02-21T01:52:42.576Z,28.13
2018-02-21T01:55:10.203Z,27.50
2018-02-21T01:57:37.846Z,28.13
2018-02-21T02:00:06.235Z,26.80
2018-02-21T02:02:34.635Z,28.70
2018-02-21T02:05:02.316Z,27.57
2018-02-21T02:07:29.931Z,27.23
2018-02-21T02:09:57.576Z,27.17
2018-02-21T02:12:25.188Z,26.53
2018-02-21T02:14:52.859Z,26.40
2018-02-21T02:17:20.500Z,26.97
2018-02-21T02:19:48.114Z,26.93
2018-02-21T02:22:15.771Z,26.47
2018-02-21T02:24:44.134Z,26.47
2018-02-21T02:27:11.780Z,27.63
2018-02-21T02:29:39.451Z,27.73
2018-02-21T02:32:07.887Z,25.83
2018-02-21T02:34:35.561Z,27.57
2018-02-21T02:37:03.944Z,29.03
2018-02-21T02:39:43.304Z,27.47
2018-02-21T02:42:10.932Z,27.37
2018-02-21T02:44:39.390Z,27.30
2018-02-21T02:47:07.036Z,29.27
2018-02-21T02:49:34.669Z,28.60
2018-02-21T02:52:03.074Z,28.83
2018-02-21T02:54:30.690Z,29.13
2018-02-21T02:56:58.355Z,28.17
2018-02-21T02:59:25.995Z,28.67
2018-02-21T03:01:53.607Z,28.70
2018-02-21T03:04:21.260Z,29.90
2018-02-21T03:06:48.871Z,30.13
2018-02-21T03:09:16.519Z,30.33
2018-02-21T03:11:44.206Z,30.50
2018-02-21T03:14:11.852Z,31.47
2018-02-21T03:16:39.563Z,31.57
2018-02-21T03:19:07.863Z,30.87
2018-02-21T03:21:35.516Z,30.30
2018-02-21T03:24:03.208Z,32.63
2018-02-21T03:26:30.839Z,31.07
2018-02-21T03:28:58.470Z,32.30
2018-02-21T03:31:26.103Z,32.10
2018-02-21T03:33:53.784Z,31.93
2018-02-21T03:36:21.443Z,31.93
2018-02-21T03:38:49.049Z,32.27
2018-02-21T03:41:16.683Z,33.83
2018-02-21T03:43:44.318Z,33.73
2018-02-21T03:46:11.970Z,33.17
2018-02-21T03:48:39.660Z,35.53
2018-02-21T03:51:07.307Z,34.50
2018-02-21T03:53:35.155Z,35.33
2018-02-21T03:56:02.779Z,36.33
2018-02-21T03:58:30.424Z,36.23
2018-02-21T04:00:58.112Z,37.50
2018-02-21T04:03:25.815Z,36.63
2018-02-21T04:05:53.456Z,36.43
2018-02-21T04:08:21.088Z,36.60
2018-02-21T04:10:49.491Z,37.27
2018-02-21T04:13:17.138Z,35.80
2018-02-21T04:15:45.531Z,37.73
2018-02-21T04:18:13.983Z,34.53
2018-02-21T04:20:41.644Z,36.57
2018-02-21T04:23:09.299Z,37.13
2018-02-21T04:25:37.011Z,36.13
2018-02-21T04:28:04.984Z,35.30
2018-02-21T04:30:33.391Z,34.30
2018-02-21T04:33:01.007Z,36.43
2018-02-21T04:35:29.447Z,37.97
2018-02-21T04:37:57.144Z,37.67
2018-02-21T04:40:24.779Z,37.10
2018-02-21T04:42:52.439Z,39.17
2018-02-21T04:45:20.077Z,37.80
2018-02-21T04:47:48.471Z,37.97
2018-02-21T04:50:16.895Z,37.23
2018-02-21T04:52:44.578Z,36.83
2018-02-21T04:55:14.716Z,36.67
2018-02-21T04:57:47.967Z,37.10
2018-02-21T05:00:37.193Z,35.90
2018-02-21T05:03:04.803Z,36.20
2018-02-21T05:05:32.432Z,36.30
2018-02-21T05:08:00.063Z,35.13
2018-02-21T05:10:27.701Z,36.13
2018-02-21T05:12:55.366Z,35.17
2018-02-21T05:15:23.023Z,35.97
2018-02-21T05:17:50.719Z,36.00
2018-02-21T05:20:18.379Z,35.63
2018-02-21T05:22:45.988Z,34.73
2018-02-21T05:25:13.623Z,35.63
2018-02-21T05:27:41.385Z,33.80
2018-02-21T05:30:09.125Z,33.63
2018-02-21T05:32:36.793Z,33.90
2018-02-21T05:35:04.475Z,34.97
2018-02-21T05:37:32.155Z,33.87
2018-02-21T05:39:59.832Z,33.30
2018-02-21T05:42:27.503Z,32.80
2018-02-21T05:44:55.924Z,32.53
2018-02-21T05:47:24.318Z,32.17
2018-02-21T05:49:52.856Z,33.13
2018-02-21T05:52:20.499Z,31.93
2018-02-21T05:54:48.112Z,31.20
2018-02-21T05:57:15.798Z,31.60
2018-02-21T05:59:43.415Z,32.90
2018-02-21T06:02:11.057Z,29.27
2018-02-21T06:04:38.730Z,31.40
2018-02-21T06:07:06.387Z,31.93
2018-02-21T06:09:34.049Z,31.43
2018-02-21T06:12:02.440Z,31.43
2018-02-21T06:14:30.131Z,30.00
2018-02-21T06:16:57.884Z,35.13
2018-02-21T06:19:25.704Z,32.80
2018-02-21T06:21:53.348Z,31.77
2018-02-21T06:24:21.731Z,32.53
2018-02-21T06:26:49.411Z,31.17
2018-02-21T06:29:17.075Z,32.33
2018-02-21T06:31:44.695Z,32.10
2018-02-21T06:34:12.356Z,30.77
2018-02-21T06:36:39.974Z,31.00
2018-02-21T06:39:07.650Z,31.77
2018-02-21T06:41:35.311Z,29.50
2018-02-21T06:44:03.726Z,29.50
2018-02-21T06:46:31.531Z,30.63
2018-02-21T06:48:59.932Z,30.60
2018-02-21T06:51:27.567Z,30.80
2018-02-21T06:53:55.215Z,30.87
2018-02-21T06:56:23.619Z,30.97
2018-02-21T06:58:52.032Z,30.27
2018-02-21T07:01:19.660Z,29.67
2018-02-21T07:03:47.303Z,30.20
2018-02-21T07:06:16.372Z,30.70
2018-02-21T07:08:44.010Z,30.77
2018-02-21T07:11:11.705Z,31.17
2018-02-21T07:13:39.499Z,30.97
2018-02-21T07:16:07.230Z,30.13
2018-02-21T07:18:34.872Z,29.67
2018-02-21T07:21:02.536Z,30.80
2018-02-21T07:23:30.207Z,30.37
2018-02-21T07:25:57.826Z,30.77
2018-02-21T07:28:25.488Z,30.90
2018-02-21T07:30:53.129Z,31.70
2018-02-21T07:33:20.806Z,31.00
2018-02-21T07:35:48.491Z,31.97
2018-02-21T07:38:16.155Z,31.60
2018-02-21T07:40:43.791Z,30.73
2018-02-21T07:43:11.413Z,30.47
2018-02-21T07:45:39.438Z,30.47
2018-02-21T07:48:07.202Z,30.20
2018-02-21T07:50:35.284Z,29.80
2018-02-21T07:53:03.024Z,29.47
2018-02-21T07:55:30.667Z,28.60
2018-02-21T07:57:59.149Z,27.00
2018-02-21T08:00:27.647Z,26.70
2018-02-21T08:02:55.976Z,28.30
2018-02-21T08:05:23.816Z,28.27
2018-02-21T08:07:51.427Z,29.73
2018-02-21T08:10:40.129Z,27.50
2018-02-21T08:13:07.751Z,28.50
2018-02-21T08:15:36.163Z,29.13
2018-02-21T08:18:03.874Z,28.43
2018-02-21T08:20:31.527Z,28.30
2018-02-21T08:22:59.209Z,28.50
2018-02-21T08:25:26.856Z,29.53
2018-02-21T08:27:54.528Z,28.87
2018-02-21T08:30:22.208Z,27.67
2018-02-21T08:32:49.958Z,28.17
2018-02-21T08:35:18.980Z,29.30
2018-02-21T08:37:47.377Z,26.87
2018-02-21T08:40:15.015Z,27.57
2018-02-21T08:42:42.669Z,27.43
2018-02-21T08:45:10.312Z,28.00
2018-02-21T08:47:37.971Z,27.87
2018-02-21T08:50:06.399Z,27.70
2018-02-21T08:52:34.043Z,28.87
2018-02-21T08:55:01.712Z,27.33
2018-02-21T08:57:30.138Z,28.93
2018-02-21T08:59:57.782Z,28.33
2018-02-21T09:02:25.464Z,27.77
2018-02-21T09:04:53.116Z,27.77
2018-02-21T09:07:21.532Z,28.03
2018-02-21T09:09:49.203Z,27.50
2018-02-21T09:12:16.807Z,27.10
2018-02-21T09:14:44.499Z,27.40
2018-02-21T09:17:12.141Z,27.87
2018-02-21T09:19:39.835Z,27.17
2018-02-21T09:22:07.502Z,28.90
2018-02-21T09:24:35.127Z,29.27
2018-02-21T09:27:03.549Z,28.27
2018-02-21T09:29:31.191Z,25.93
2018-02-21T09:31:59.601Z,26.57
2018-02-21T09:34:27.232Z,28.30
2018-02-21T09:36:54.900Z,28.63
2018-02-21T09:39:22.558Z,29.10
2018-02-21T09:41:50.193Z,27.10
2018-02-21T09:44:17.858Z,29.00
2018-02-21T09:46:46.279Z,27.33
2018-02-21T09:49:13.927Z,28.40
2018-02-21T09:51:42.375Z,27.33
2018-02-21T09:54:09.980Z,27.23
2018-02-21T09:56:37.616Z,29.00
2018-02-21T09:59:05.241Z,26.93
2018-02-21T10:01:33.660Z,26.07
2018-02-21T10:04:01.316Z,28.13
2018-02-21T10:06:28.944Z,26.53
2018-02-21T10:08:56.592Z,25.00
2018-02-21T10:11:24.227Z,26.63
2018-02-21T10:13:52.676Z,25.60
2018-02-21T10:16:20.367Z,25.70
2018-02-21T10:18:47.990Z,26.23
2018-02-21T10:21:15.645Z,24.40
2018-02-21T10:23:44.033Z,24.80
2018-02-21T10:26:12.483Z,25.23
2018-02-21T10:28:40.174Z,26.50
2018-02-21T10:31:07.820Z,23.43
2018-02-21T10:33:36.244Z,24.63
2018-02-21T10:36:03.914Z,24.03
2018-02-21T10:38:31.632Z,24.43
2018-02-21T10:40:59.310Z,23.80
2018-02-21T10:43:26.940Z,25.37
2018-02-21T10:45:54.586Z,25.30
2018-02-21T10:48:22.220Z,24.83
2018-02-21T10:50:49.910Z,25.63
2018-02-21T10:53:17.509Z,25.27
2018-02-21T10:55:45.157Z,26.27
2018-02-21T10:58:12.805Z,24.83
2018-02-21T11:00:46.797Z,24.17
2018-02-21T11:03:14.499Z,26.20
2018-02-21T11:05:42.902Z,24.23
2018-02-21T11:08:11.356Z,25.73
2018-02-21T11:10:38.999Z,24.37
2018-02-21T11:13:06.656Z,24.97
2018-02-21T11:15:34.321Z,24.07
2018-02-21T11:18:01.992Z,25.67
2018-02-21T11:20:29.620Z,25.20
2018-02-21T11:22:57.272Z,24.50
2018-02-21T11:25:24.932Z,24.90
2018-02-21T11:27:52.744Z,24.60
2018-02-21T11:30:20.380Z,24.30
2018-02-21T11:32:48.043Z,22.20
2018-02-21T11:35:15.699Z,22.53
2018-02-21T11:37:44.339Z,20.97
2018-02-21T11:40:12.004Z,21.87
2018-02-21T11:42:39.772Z,21.87
2018-02-21T11:45:07.452Z,21.93
2018-02-21T11:47:35.106Z,21.07
2018-02-21T11:50:03.537Z,20.10
2018-02-21T11:52:31.191Z,20.20
2018-02-21T11:54:59.907Z,20.07
2018-02-21T11:57:35.319Z,19.63
2018-02-21T12:00:02.971Z,20.73
2018-02-21T12:02:30.712Z,21.00
2018-02-21T12:05:13.823Z,20.10
2018-02-21T12:07:42.239Z,19.83
2018-02-21T12:10:10.913Z,19.93
2018-02-21T12:12:39.348Z,19.67
2018-02-21T12:15:06.991Z,19.13
2018-02-21T12:17:34.636Z,18.37
2018-02-21T12:20:02.288Z,19.20
2018-02-21T12:22:29.954Z,18.23
2018-02-21T12:24:57.622Z,17.77
2018-02-21T12:33:11.047Z,19.60
2018-02-21T12:35:38.840Z,19.37
2018-02-21T12:38:06.525Z,19.03
2018-02-21T12:40:39.763Z,18.53
2018-02-21T12:43:07.408Z,15.77
2018-02-21T12:45:35.055Z,15.50
2018-02-21T12:48:02.706Z,16.40
2018-02-21T12:50:30.338Z,16.90
2018-02-21T12:52:58.792Z,17.27
2018-02-21T12:55:26.460Z,17.23
2018-02-21T12:57:54.105Z,16.87
2018-02-21T13:00:21.771Z,16.50
2018-02-21T13:02:49.421Z,17.17
2018-02-21T13:05:17.878Z,16.07
2018-02-21T13:07:45.506Z,17.93
2018-02-21T13:10:13.175Z,16.37
2018-02-21T13:12:40.822Z,16.50
2018-02-21T13:15:08.469Z,15.77
2018-02-21T13:17:36.112Z,16.80
2018-02-21T13:22:39.972Z,15.83
2018-02-21T13:25:08.448Z,16.87
2018-02-21T13:27:36.128Z,15.50
2018-02-21T13:30:03.895Z,16.13
2018-02-21T13:32:32.372Z,16.43
2018-02-21T13:35:00.017Z,15.70
2018-02-21T13:37:27.687Z,15.60
2018-02-21T13:39:55.496Z,16.13
2018-02-21T13:42:23.892Z,16.20
2018-02-21T13:44:52.333Z,15.13
2018-02-21T13:47:19.976Z,15.47
2018-02-21T13:49:47.701Z,15.60
2018-02-21T13:52:15.335Z,15.00
2018-02-21T13:54:42.979Z,17.07
2018-02-21T13:57:11.444Z,15.27
2018-02-21T13:59:39.072Z,15.27
2018-02-21T14:02:06.746Z,15.97
2018-02-21T14:04:34.390Z,15.57
2018-02-21T14:07:02.119Z,15.07
2018-02-21T14:09:29.887Z,15.90
2018-02-21T14:11:58.359Z,14.43
2018-02-21T14:14:26.811Z,15.63
2018-02-21T14:16:54.455Z,14.37
2018-02-21T14:19:22.133Z,15.30
2018-02-21T14:21:49.771Z,14.80
2018-02-21T14:24:18.204Z,15.00
2018-02-21T14:26:45.919Z,14.60
2018-02-21T14:29:13.568Z,14.40
2018-02-21T14:31:41.252Z,13.93
2018-02-21T14:34:08.916Z,14.17
2018-02-21T14:36:36.569Z,13.73
2018-02-21T14:39:04.276Z,14.40
2018-02-21T14:41:31.932Z,14.07
2018-02-21T14:43:59.563Z,13.33
2018-02-21T14:46:28.053Z,13.40
2018-02-21T14:48:56.453Z,13.33
2018-02-21T14:51:24.126Z,13.10
2018-02-21T14:53:51.796Z,12.40
2018-02-21T14:56:20.284Z,13.33
2018-02-21T14:58:48.691Z,13.67
2018-02-21T15:01:16.334Z,13.77
2018-02-21T15:03:44.038Z,13.20
2018-02-21T15:06:11.720Z,12.93
2018-02-21T15:14:36.212Z,14.47
2018-02-21T15:17:03.835Z,13.23
2018-02-21T15:19:32.283Z,13.67
2018-02-21T15:21:59.988Z,14.93
2018-02-21T15:24:28.196Z,14.37
2018-02-21T15:26:56.058Z,14.07
2018-02-21T15:29:23.704Z,16.33
2018-02-21T15:31:51.459Z,16.23
2018-02-21T15:34:19.148Z,15.57
2018-02-21T15:36:46.782Z,14.57
2018-02-21T15:39:15.220Z,16.57
2018-02-21T15:41:42.859Z,16.20
2018-02-21T15:44:10.537Z,19.33
2018-02-21T15:46:38.258Z,18.33
2018-02-21T15:49:05.898Z,14.07
2018-02-21T15:51:33.596Z,14.70
2018-02-21T15:54:01.247Z,16.73
2018-02-21T15:56:28.900Z,15.30
2018-02-21T15:58:57.313Z,16.00
2018-02-21T16:01:24.939Z,16.27
2018-02-21T16:04:05.208Z,14.50
2018-02-21T16:06:32.857Z,17.40
2018-02-21T16:09:00.552Z,15.83
2018-02-21T16:11:28.239Z,14.87
2018-02-21T16:13:56.081Z,16.03
2018-02-21T16:16:23.730Z,16.00
2018-02-21T16:18:51.372Z,15.47
2018-02-21T16:21:19.072Z,16.27
2018-02-21T16:23:46.759Z,15.10
2018-02-21T16:26:14.389Z,14.60
2018-02-21T16:28:42.827Z,18.63
2018-02-21T16:31:10.465Z,18.03
2018-02-21T16:33:38.188Z,15.10
2018-02-21T16:36:05.895Z,15.03
2018-02-21T16:38:33.549Z,15.50
2018-02-21T16:41:01.213Z,15.87
2018-02-21T16:43:28.852Z,16.47
2018-02-21T16:45:57.275Z,15.33
2018-02-21T16:48:24.927Z,16.67
2018-02-21T16:50:52.555Z,16.17
2018-02-21T16:53:20.201Z,15.27
2018-02-21T16:55:47.841Z,15.87
2018-02-21T16:58:15.531Z,16.90
2018-02-21T17:03:54.038Z,15.30
2018-02-21T17:06:21.680Z,16.43
2018-02-21T17:08:49.411Z,15.33
2018-02-21T17:20:16.335Z,15.67
2018-02-21T17:22:44.755Z,15.77
2018-02-21T17:25:12.445Z,15.90
2018-02-21T17:42:24.086Z,16.37
2018-02-21T17:44:51.775Z,17.07
2018-02-21T17:47:19.411Z,17.77
2018-02-21T17:49:47.071Z,16.47
2018-02-21T17:52:14.775Z,17.60
2018-02-21T17:54:43.181Z,18.13
2018-02-21T17:57:10.924Z,19.53
2018-02-21T17:59:38.565Z,18.87
2018-02-21T18:02:06.989Z,21.47
2018-02-21T18:04:34.634Z,17.53
2018-02-21T18:07:03.074Z,19.27
2018-02-21T18:09:31.095Z,19.23
2018-02-21T18:12:10.247Z,17.43
2018-02-21T18:14:38.160Z,16.67
2018-02-21T18:17:05.900Z,21.80
2018-02-21T18:19:34.565Z,17.60
2018-02-21T18:22:02.398Z,18.13
2018-02-21T18:24:30.169Z,18.57
2018-02-21T18:26:57.888Z,17.50
2018-02-21T18:29:25.703Z,18.93
2018-02-21T18:31:54.048Z,17.87
2018-02-21T18:34:21.770Z,18.17
2018-02-21T18:36:50.333Z,18.30
2018-02-21T18:39:18.173Z,22.50
2018-02-21T18:41:45.904Z,20.90
2018-02-21T18:44:13.631Z,18.73
2018-02-21T18:46:52.443Z,17.43
2018-02-21T18:49:21.013Z,17.27
2018-02-21T18:51:53.237Z,17.40
2018-02-21T18:54:21.024Z,64.40
2018-02-21T18:56:49.420Z,27.50
2018-02-21T18:59:17.103Z,27.73
2018-02-21T19:01:45.107Z,22.07
2018-02-21T19:04:13.980Z,18.97
2018-02-21T19:06:42.031Z,19.73
2018-02-21T19:09:10.616Z,23.03
2018-02-21T19:11:39.226Z,21.10
2018-02-21T19:14:07.092Z,24.77
2018-02-21T19:16:34.752Z,24.77
2018-02-21T19:19:02.420Z,21.20
2018-02-21T19:21:30.267Z,21.93
2018-02-21T19:23:57.899Z,19.07
2018-02-21T19:26:25.663Z,16.47
2018-02-21T19:28:53.887Z,18.17
2018-02-21T19:31:21.739Z,26.07
2018-02-21T19:33:49.682Z,18.07
2018-02-21T19:36:17.452Z,17.70
2018-02-21T19:38:45.180Z,16.83
2018-02-21T19:41:13.919Z,17.77
2018-02-21T19:43:41.778Z,23.67
2018-02-21T19:46:10.247Z,21.67
2018-02-21T19:48:38.100Z,17.33
2018-02-21T19:51:05.917Z,17.70
2018-02-21T19:53:34.494Z,17.43
2018-02-21T19:56:02.664Z,28.10
2018-02-21T19:58:30.406Z,27.20
2018-02-21T20:00:58.256Z,21.47
2018-02-21T20:03:26.814Z,25.87
2018-02-21T20:05:54.530Z,25.73
2018-02-21T20:08:23.110Z,24.00
2018-02-21T20:10:51.430Z,23.60
2018-02-21T20:13:19.158Z,38.33
2018-02-21T20:15:47.705Z,28.73
2018-02-21T20:18:15.471Z,21.03
2018-02-21T20:20:43.264Z,20.97
2018-02-21T20:23:11.046Z,17.53
2018-02-21T20:25:38.893Z,18.07
2018-02-21T20:28:20.641Z,18.57
2018-02-21T20:30:48.308Z,18.70
2018-02-21T20:33:15.995Z,19.90
2018-02-21T20:35:43.622Z,21.20
2018-02-21T20:38:11.299Z,20.77
2018-02-21T20:40:39.845Z,19.50
2018-02-21T20:43:07.595Z,21.77
2018-02-21T20:45:35.211Z,20.67
2018-02-21T20:48:02.852Z,21.63
2018-02-21T20:50:30.549Z,22.83
2018-02-21T20:52:58.326Z,17.73
2018-02-21T20:55:26.632Z,17.87
2018-02-21T20:57:54.460Z,17.13
2018-02-21T21:00:22.860Z,16.23
2018-02-21T21:02:50.525Z,14.63
2018-02-21T21:05:20.212Z,19.40
2018-02-21T21:07:47.983Z,16.70
2018-02-21T21:10:15.587Z,16.23
2018-02-21T21:12:44.045Z,15.90
2018-02-21T21:15:11.744Z,19.93
2018-02-21T21:17:39.758Z,20.10
2018-02-21T21:20:07.692Z,16.67
2018-02-21T21:22:35.356Z,15.03
2018-02-21T21:25:03.904Z,16.93
2018-02-21T21:27:31.643Z,14.03
2018-02-21T21:29:59.279Z,13.67
2018-02-21T21:32:32.217Z,15.87
2018-02-21T21:34:59.869Z,26.33
2018-02-21T21:37:27.474Z,15.90
2018-02-21T21:39:55.112Z,16.87
2018-02-21T21:42:25.665Z,17.93
2018-02-21T21:44:53.305Z,18.40
2018-02-21T21:47:21.813Z,14.87
2018-02-21T21:49:49.450Z,15.47
2018-02-21T21:52:17.915Z,12.90
2018-02-21T21:54:45.564Z,13.03
2018-02-21T21:57:13.198Z,13.03
2018-02-21T21:59:40.884Z,15.17
2018-02-21T22:02:08.523Z,18.80
2018-02-21T22:04:36.166Z,17.93
2018-02-21T22:07:03.810Z,21.87
2018-02-21T22:09:31.432Z,13.97
2018-02-21T22:11:59.075Z,13.37
2018-02-21T22:14:26.709Z,12.40
2018-02-21T22:16:55.114Z,11.70
2018-02-21T22:19:22.776Z,12.70
2018-02-21T22:21:51.188Z,11.47
2018-02-21T22:24:18.831Z,12.73
2018-02-21T22:26:47.237Z,12.13
2018-02-21T22:29:15.651Z,12.53
2018-02-21T22:31:44.232Z,12.97
2018-02-21T22:34:11.890Z,13.13
2018-02-21T22:36:40.324Z,13.97
2018-02-21T22:39:07.993Z,15.10
2018-02-21T22:41:35.676Z,15.17
2018-02-21T22:44:03.291Z,15.00
2018-02-21T22:46:30.934Z,17.90
2018-02-21T22:48:58.597Z,16.37
2018-02-21T22:51:26.249Z,13.40
2018-02-21T22:53:53.913Z,12.13
2018-02-21T22:56:22.555Z,11.90
2018-02-21T23:01:56.116Z,16.03
2018-02-21T23:04:23.814Z,14.33
2018-02-21T23:06:51.472Z,17.43
2018-02-21T23:09:19.105Z,14.07
2018-02-21T23:11:46.767Z,13.63
2018-02-21T23:14:14.383Z,18.73
2018-02-21T23:16:42.040Z,22.63
2018-02-21T23:19:09.720Z,20.80
2018-02-21T23:21:38.091Z,24.13
2018-02-21T23:24:05.754Z,19.97
2018-02-21T23:26:33.413Z,12.37
2018-02-21T23:29:01.812Z,13.10
2018-02-21T23:31:30.237Z,20.20
2018-02-21T23:33:57.892Z,21.57
2018-02-21T23:36:25.573Z,12.93
2018-02-21T23:38:53.224Z,12.50
2018-02-21T23:41:21.622Z,12.90
2018-02-21T23:43:49.311Z,11.90
2018-02-21T23:46:16.943Z,10.70
2018-02-21T23:48:44.607Z,11.20
2018-02-21T23:51:12.260Z,10.80
2018-02-21T23:53:39.916Z,10.63
2018-02-21T23:56:07.566Z,11.40
2018-02-21T23:58:35.226Z,16.27
